Oconto, Nebraska
Current Conditions -  °F | °C
As of 11:53 AM on Tuesday 21 Oct 2014 (Local Time) from KBBW Reporting Station
Clear Clear  
Wind Chill: 73°   Ceiling: Unl
Heat Index: 73°   Visibility: 10mi
Dew Point: 43°   Wind: 18mph
Humidity: 34%   Direction: 180°S
Pressure: 30.04"   Gusts: NA
Location:  41.14°N, 99.76°W
Report Text: KBBW 211653Z AUTO 18016KT 10SM CLR 23/06 A3004 RMK AO2 SLP165 T02280061
Loading
Personal Weather Stations






























Interactive Weather Map
Tropical Storm Tracking
New forecast layout! Learn more

10-Day Weather Forecast

Advertisements
Track Severe Weather on mobile